Time;durP1;ratioP1;P1;durP2;ratioP2;P2;SDS_P1;SDS_P2;PMS_P1;PMS_P2;Temp;Humidity;BMP_temperature;BMP_pressure;BME280_temperature;BME280_humidity;BME280_pressure;Samples;Min_cycle;Max_cycle;Signal;HPM_P1;HPM_P2
2023/01/13 00:00:49;;;;;;;23.17;6.45;;;;;;;;;;5053851;28;20452;-74
2023/01/13 00:03:15;;;;;;;24.60;6.25;;;;;;;;;;5034440;28;20045;-74
2023/01/13 00:05:41;;;;;;;27.55;7.03;;;;;;;;;;5017926;28;20049;-74
2023/01/13 00:08:07;;;;;;;30.08;5.80;;;;;;;;;;5017709;28;20045;-75
2023/01/13 00:10:34;;;;;;;32.50;6.63;;;;;;;;;;5017392;28;20050;-74
2023/01/13 00:13:00;;;;;;;27.95;7.10;;;;;;;;;;5018218;28;20042;-74
2023/01/13 00:15:27;;;;;;;24.10;6.40;;;;;;;;;;5019106;28;20103;-75
2023/01/13 00:17:53;;;;;;;26.88;7.07;;;;;;;;;;5013554;28;20081;-74
2023/01/13 00:20:19;;;;;;;27.15;6.85;;;;;;;;;;5017371;28;20045;-74
2023/01/13 00:22:45;;;;;;;24.50;6.75;;;;;;;;;;5021257;28;20076;-75
2023/01/13 00:25:11;;;;;;;32.08;8.07;;;;;;;;;;5018266;28;20049;-74
2023/01/13 00:27:37;;;;;;;34.33;6.90;;;;;;;;;;5018071;28;20091;-74
2023/01/13 00:30:03;;;;;;;33.85;6.40;;;;;;;;;;5021403;28;20057;-74
2023/01/13 00:32:29;;;;;;;27.10;6.82;;;;;;;;;;5013678;28;20060;-74
2023/01/13 00:34:55;;;;;;;22.38;5.75;;;;;;;;;;5022883;28;20038;-74
2023/01/13 00:37:22;;;;;;;28.23;6.97;;;;;;;;;;5020263;28;20393;-75
2023/01/13 00:39:48;;;;;;;24.17;6.45;;;;;;;;;;5017573;28;20166;-74
2023/01/13 00:44:59;;;;;;;30.42;6.78;;;;;;;;;;5020493;28;20050;-74
2023/01/13 00:47:25;;;;;;;32.40;6.43;;;;;;;;;;5015431;28;20463;-74
2023/01/13 00:49:51;;;;;;;35.97;7.57;;;;;;;;;;5022067;28;20056;-74
2023/01/13 00:52:17;;;;;;;26.63;6.43;;;;;;;;;;5023473;28;20045;-74
2023/01/13 00:54:43;;;;;;;28.60;7.30;;;;;;;;;;5020313;28;20132;-74
2023/01/13 00:57:09;;;;;;;30.17;6.75;;;;;;;;;;5018761;28;20051;-74
2023/01/13 00:59:35;;;;;;;34.30;7.68;;;;;;;;;;5025394;28;20057;-74
2023/01/13 01:02:01;;;;;;;27.77;7.18;;;;;;;;;;5017776;28;20053;-74
2023/01/13 01:04:27;;;;;;;25.40;6.38;;;;;;;;;;5018018;28;20069;-74
2023/01/13 01:06:53;;;;;;;23.83;6.07;;;;;;;;;;5019955;28;20875;-74
2023/01/13 01:09:19;;;;;;;29.25;7.00;;;;;;;;;;5019489;28;20049;-75
2023/01/13 01:11:45;;;;;;;36.17;7.35;;;;;;;;;;5024828;28;20124;-74
2023/01/13 01:14:12;;;;;;;26.65;6.55;;;;;;;;;;5022824;28;20890;-74
2023/01/13 01:16:39;;;;;;;30.92;6.60;;;;;;;;;;5023617;28;20056;-74
2023/01/13 01:19:05;;;;;;;33.55;7.38;;;;;;;;;;5024339;28;20053;-74
2023/01/13 01:21:31;;;;;;;25.95;7.35;;;;;;;;;;5020941;28;20052;-74
2023/01/13 01:23:59;;;;;;;33.25;7.55;;;;;;;;;;5023465;28;20096;-74
2023/01/13 01:26:26;;;;;;;30.33;7.30;;;;;;;;;;5023166;28;20080;-74
2023/01/13 01:28:52;;;;;;;23.55;6.00;;;;;;;;;;5022910;28;20059;-74
2023/01/13 01:31:26;;;;;;;31.45;6.60;;;;;;;;;;5022711;28;20060;-75
2023/01/13 01:33:55;;;;;;;32.65;6.72;;;;;;;;;;5023281;28;20489;-74
2023/01/13 01:36:22;;;;;;;33.13;6.35;;;;;;;;;;5054572;28;20045;-75
2023/01/13 01:38:49;;;;;;;30.60;5.93;;;;;;;;;;5025399;28;20041;-75
2023/01/13 01:41:16;;;;;;;28.00;6.55;;;;;;;;;;5022118;28;20120;-74
2023/01/13 01:44:03;;;;;;;26.45;6.57;;;;;;;;;;5022775;28;20080;-74
2023/01/13 01:46:32;;;;;;;27.67;8.05;;;;;;;;;;5023300;28;20049;-74
2023/01/13 01:49:01;;;;;;;35.95;6.93;;;;;;;;;;5023236;28;20037;-74
2023/01/13 01:51:28;;;;;;;27.83;5.95;;;;;;;;;;5023623;28;20038;-74
2023/01/13 01:53:56;;;;;;;32.17;6.05;;;;;;;;;;5024869;28;20038;-75
2023/01/13 01:56:22;;;;;;;32.05;6.82;;;;;;;;;;5022235;28;20053;-74
2023/01/13 01:58:50;;;;;;;28.67;7.35;;;;;;;;;;5025802;28;20587;-74
2023/01/13 02:01:16;;;;;;;33.50;7.60;;;;;;;;;;5024872;28;20578;-74
2023/01/13 02:03:45;;;;;;;31.77;6.45;;;;;;;;;;5021470;28;20096;-74
2023/01/13 02:06:12;;;;;;;37.03;7.13;;;;;;;;;;5022442;28;20509;-74
2023/01/13 02:08:39;;;;;;;23.48;5.50;;;;;;;;;;5024448;28;20084;-74
2023/01/13 02:12:28;;;;;;;28.38;6.57;;;;;;;;;;5022606;28;20584;-74
2023/01/13 02:13:51;;;;;;;36.95;8.23;;;;;;;;;;5022884;28;20061;-74
2023/01/13 02:16:21;;;;;;;32.47;7.45;;;;;;;;;;5023864;28;20072;-74
2023/01/13 02:19:09;;;;;;;33.15;8.15;;;;;;;;;;5024101;28;20072;-74
2023/01/13 02:21:41;;;;;;;27.13;7.68;;;;;;;;;;5020494;28;20050;-74
2023/01/13 02:27:02;;;;;;;31.27;6.88;;;;;;;;;;5022243;28;20492;-74
2023/01/13 02:32:31;;;;;;;31.02;7.65;;;;;;;;;;5022893;28;20042;-74
2023/01/13 02:35:06;;;;;;;31.55;7.97;;;;;;;;;;5023313;28;20084;-74
2023/01/13 02:37:34;;;;;;;30.00;6.72;;;;;;;;;;5023826;28;20124;-74
2023/01/13 02:40:02;;;;;;;31.05;7.57;;;;;;;;;;5018786;28;20046;-73
2023/01/13 02:45:19;;;;;;;32.45;8.07;;;;;;;;;;5023421;28;21558;-74
2023/01/13 02:47:48;;;;;;;31.25;6.32;;;;;;;;;;5025208;28;20045;-74
2023/01/13 02:50:16;;;;;;;26.65;6.15;;;;;;;;;;5019748;28;20053;-74
2023/01/13 02:52:54;;;;;;;28.40;6.45;;;;;;;;;;5019597;28;20076;-74
2023/01/13 02:55:23;;;;;;;24.75;5.57;;;;;;;;;;5018410;28;20569;-74
2023/01/13 02:57:49;;;;;;;28.17;6.60;;;;;;;;;;5022919;28;20049;-74
2023/01/13 03:00:16;;;;;;;27.92;6.43;;;;;;;;;;5021830;28;20041;-74
2023/01/13 03:02:42;;;;;;;21.05;5.88;;;;;;;;;;5027773;28;20049;-74
2023/01/13 03:05:13;;;;;;;18.13;5.05;;;;;;;;;;5021707;28;20044;-74
2023/01/13 03:07:48;;;;;;;30.30;6.03;;;;;;;;;;5030250;28;20045;-74
2023/01/13 03:10:17;;;;;;;22.20;5.45;;;;;;;;;;5025406;28;20042;-74
2023/01/13 03:12:53;;;;;;;19.52;5.57;;;;;;;;;;5056499;28;20046;-74
2023/01/13 03:15:27;;;;;;;21.80;5.22;;;;;;;;;;5024669;28;20052;-74
2023/01/13 03:17:59;;;;;;;30.05;5.85;;;;;;;;;;5029184;28;20046;-73
2023/01/13 03:20:26;;;;;;;21.95;5.13;;;;;;;;;;5027105;28;20049;-74
2023/01/13 03:23:02;;;;;;;20.08;4.55;;;;;;;;;;5029211;28;20042;-74
2023/01/13 03:25:28;;;;;;;18.67;4.32;;;;;;;;;;5026203;28;20046;-74
2023/01/13 03:27:58;;;;;;;24.10;5.03;;;;;;;;;;5051267;28;20049;-74
2023/01/13 03:30:24;;;;;;;19.85;6.13;;;;;;;;;;5012749;28;20111;-74
2023/01/13 03:32:56;;;;;;;27.77;5.95;;;;;;;;;;5026988;28;20124;-75
2023/01/13 03:35:29;;;;;;;24.67;5.70;;;;;;;;;;5029233;28;20041;-74
2023/01/13 03:38:05;;;;;;;25.45;5.63;;;;;;;;;;5012841;28;20049;-74
2023/01/13 03:40:37;;;;;;;21.40;6.35;;;;;;;;;;5022753;28;20037;-74
2023/01/13 03:45:54;;;;;;;21.00;5.28;;;;;;;;;;5027807;28;20049;-74
2023/01/13 03:48:22;;;;;;;28.05;5.65;;;;;;;;;;5024221;28;20106;-74
2023/01/13 03:50:50;;;;;;;19.98;5.38;;;;;;;;;;5023358;28;20049;-74
2023/01/13 03:53:27;;;;;;;25.23;4.45;;;;;;;;;;5025418;28;20041;-74
2023/01/13 03:55:57;;;;;;;18.30;6.35;;;;;;;;;;5022905;28;20836;-74
2023/01/13 03:58:24;;;;;;;19.67;5.85;;;;;;;;;;5024952;28;20053;-74
2023/01/13 04:00:50;;;;;;;19.20;5.35;;;;;;;;;;5020617;28;20041;-74
2023/01/13 04:03:39;;;;;;;22.08;6.22;;;;;;;;;;5026282;28;20136;-74
2023/01/13 04:06:14;;;;;;;23.38;6.05;;;;;;;;;;5003620;28;20053;-74
2023/01/13 04:08:44;;;;;;;21.95;5.45;;;;;;;;;;5027776;28;20042;-74
2023/01/13 04:11:17;;;;;;;19.42;4.97;;;;;;;;;;5023103;28;20045;-74
2023/01/13 04:13:44;;;;;;;19.65;5.13;;;;;;;;;;5046345;28;22916;-74
2023/01/13 04:16:11;;;;;;;24.27;5.82;;;;;;;;;;5029398;28;20053;-74
2023/01/13 04:18:38;;;;;;;14.95;4.22;;;;;;;;;;5024557;28;20516;-74
2023/01/13 04:21:04;;;;;;;19.83;5.43;;;;;;;;;;5024020;28;20124;-74
2023/01/13 04:23:31;;;;;;;21.90;4.70;;;;;;;;;;5028031;28;20120;-74
2023/01/13 04:25:57;;;;;;;23.38;4.88;;;;;;;;;;5023905;28;20042;-74
2023/01/13 04:28:24;;;;;;;18.23;4.43;;;;;;;;;;5023538;28;20072;-74
2023/01/13 04:30:50;;;;;;;21.40;4.90;;;;;;;;;;5003448;28;20057;-74
2023/01/13 04:33:16;;;;;;;18.88;4.68;;;;;;;;;;5024358;28;20046;-74
2023/01/13 04:35:43;;;;;;;27.95;5.68;;;;;;;;;;5023489;28;20042;-74
2023/01/13 04:38:11;;;;;;;21.27;6.05;;;;;;;;;;5019386;28;20049;-75
2023/01/13 04:40:37;;;;;;;18.90;5.57;;;;;;;;;;5022825;28;20038;-74
2023/01/13 04:43:03;;;;;;;16.83;4.22;;;;;;;;;;5021170;28;20049;-74
2023/01/13 04:45:30;;;;;;;21.13;5.00;;;;;;;;;;5024951;28;20099;-74
2023/01/13 04:47:56;;;;;;;26.33;6.15;;;;;;;;;;5024767;28;20069;-74
2023/01/13 04:50:22;;;;;;;23.58;4.85;;;;;;;;;;5019034;28;20065;-74
2023/01/13 04:52:51;;;;;;;23.25;5.40;;;;;;;;;;5022277;28;20639;-74
2023/01/13 04:55:18;;;;;;;24.30;5.38;;;;;;;;;;5031594;28;20033;-74
2023/01/13 04:57:44;;;;;;;19.15;5.20;;;;;;;;;;5033670;28;20084;-74
2023/01/13 05:00:11;;;;;;;22.58;5.50;;;;;;;;;;5035495;28;20172;-74
2023/01/13 05:02:37;;;;;;;21.30;5.22;;;;;;;;;;5031035;28;20049;-74
2023/01/13 05:05:04;;;;;;;20.50;5.57;;;;;;;;;;5024776;28;20065;-74
2023/01/13 05:07:30;;;;;;;22.42;5.07;;;;;;;;;;5016642;28;20049;-74
2023/01/13 05:09:56;;;;;;;21.00;5.75;;;;;;;;;;5020036;28;20045;-74
2023/01/13 05:17:53;;;;;;;12.75;4.40;;;;;;;;;;5025396;28;20057;-73
2023/01/13 05:20:19;;;;;;;28.52;5.95;;;;;;;;;;5003094;28;20053;-74
2023/01/13 05:25:30;;;;;;;15.90;4.45;;;;;;;;;;5024571;28;20042;-75
2023/01/13 05:27:57;;;;;;;19.05;4.20;;;;;;;;;;5021001;28;20176;-74
2023/01/13 05:30:25;;;;;;;19.23;5.00;;;;;;;;;;5026909;28;20042;-74
2023/01/13 05:32:51;;;;;;;17.50;5.65;;;;;;;;;;5026017;28;20073;-74
2023/01/13 05:35:17;;;;;;;22.08;5.50;;;;;;;;;;5022762;28;20073;-74
2023/01/13 05:37:44;;;;;;;21.05;5.15;;;;;;;;;;5022918;28;20045;-74
2023/01/13 05:43:19;;;;;;;24.63;6.65;;;;;;;;;;5025309;28;20330;-74
2023/01/13 05:45:46;;;;;;;21.00;6.15;;;;;;;;;;5009662;28;20096;-74
2023/01/13 05:48:12;;;;;;;21.30;5.93;;;;;;;;;;5016453;28;20115;-73
2023/01/13 05:50:39;;;;;;;21.20;4.55;;;;;;;;;;5025080;28;20120;-74
2023/01/13 05:53:05;;;;;;;19.63;4.65;;;;;;;;;;5020175;28;20103;-73
2023/01/13 05:55:31;;;;;;;25.10;5.25;;;;;;;;;;5028780;28;20079;-74
2023/01/13 05:57:57;;;;;;;23.63;5.15;;;;;;;;;;5022897;28;20042;-74
2023/01/13 06:00:23;;;;;;;30.27;5.80;;;;;;;;;;5019325;28;20049;-74
2023/01/13 06:02:49;;;;;;;15.75;4.82;;;;;;;;;;5024793;28;20446;-74
2023/01/13 06:05:15;;;;;;;18.95;4.97;;;;;;;;;;5024279;28;20428;-74
2023/01/13 06:07:41;;;;;;;14.77;4.57;;;;;;;;;;5025883;28;20463;-74
2023/01/13 06:10:07;;;;;;;17.95;4.75;;;;;;;;;;5021112;28;20037;-74
2023/01/13 06:12:33;;;;;;;21.42;5.53;;;;;;;;;;5024793;28;20038;-74
2023/01/13 06:15:00;;;;;;;19.17;6.13;;;;;;;;;;5021795;28;20053;-73
2023/01/13 06:17:26;;;;;;;16.90;4.70;;;;;;;;;;5024525;28;20053;-74
2023/01/13 06:19:52;;;;;;;24.77;5.93;;;;;;;;;;5024989;28;20057;-74
2023/01/13 06:22:19;;;;;;;16.85;5.13;;;;;;;;;;5024037;28;20397;-74
2023/01/13 06:24:45;;;;;;;24.15;5.20;;;;;;;;;;5026174;28;20072;-75
2023/01/13 06:27:12;;;;;;;16.15;4.50;;;;;;;;;;5022906;28;20041;-74
2023/01/13 06:29:38;;;;;;;22.75;4.88;;;;;;;;;;5022113;28;20045;-72
2023/01/13 06:32:10;;;;;;;22.10;5.93;;;;;;;;;;5020248;28;20037;-74
2023/01/13 06:34:37;;;;;;;23.08;4.93;;;;;;;;;;5020382;28;20568;-74
2023/01/13 06:37:03;;;;;;;17.23;4.28;;;;;;;;;;5025877;28;20041;-74
2023/01/13 06:39:30;;;;;;;17.27;4.32;;;;;;;;;;5030304;28;20084;-74
2023/01/13 06:44:42;;;;;;;14.85;4.55;;;;;;;;;;5028979;28;20053;-74
2023/01/13 06:47:08;;;;;;;18.48;4.97;;;;;;;;;;5025056;28;20038;-74
2023/01/13 06:49:37;;;;;;;13.40;4.38;;;;;;;;;;5033805;28;20049;-75
2023/01/13 06:52:03;;;;;;;15.88;4.38;;;;;;;;;;5025076;28;20041;-74
2023/01/13 06:54:29;;;;;;;20.27;5.28;;;;;;;;;;5025975;28;20079;-74
2023/01/13 06:56:55;;;;;;;18.02;5.47;;;;;;;;;;5028505;28;20117;-75
2023/01/13 06:59:21;;;;;;;22.55;4.80;;;;;;;;;;5031308;28;20051;-74
2023/01/13 07:01:47;;;;;;;22.23;5.10;;;;;;;;;;5027230;28;20037;-74
2023/01/13 07:04:13;;;;;;;27.42;4.78;;;;;;;;;;5029236;28;20064;-74
2023/01/13 07:06:39;;;;;;;19.35;4.35;;;;;;;;;;5019412;28;20136;-74
2023/01/13 07:09:05;;;;;;;18.10;4.60;;;;;;;;;;5025436;28;20087;-74
2023/01/13 07:11:31;;;;;;;17.58;5.07;;;;;;;;;;5024139;28;20054;-74
2023/01/13 07:16:43;;;;;;;21.45;5.13;;;;;;;;;;5054824;28;20049;-75
2023/01/13 07:19:09;;;;;;;21.83;4.93;;;;;;;;;;5028351;28;20049;-74
2023/01/13 07:21:35;;;;;;;19.63;5.07;;;;;;;;;;5018768;28;20351;-74
2023/01/13 07:24:01;;;;;;;21.83;4.75;;;;;;;;;;5029407;28;20045;-74
2023/01/13 07:26:27;;;;;;;14.90;4.70;;;;;;;;;;5026172;28;20134;-74
2023/01/13 07:28:56;;;;;;;27.02;4.75;;;;;;;;;;5027030;28;20068;-74
2023/01/13 07:31:22;;;;;;;16.80;4.93;;;;;;;;;;5026405;28;20057;-74
2023/01/13 07:33:48;;;;;;;22.77;6.07;;;;;;;;;;5029042;28;20049;-74
2023/01/13 07:36:14;;;;;;;25.42;5.68;;;;;;;;;;5027125;28;20048;-74
2023/01/13 07:38:43;;;;;;;20.45;4.90;;;;;;;;;;5028673;28;20087;-74
2023/01/13 07:43:56;;;;;;;20.98;6.53;;;;;;;;;;5024696;28;20046;-74
2023/01/13 07:46:22;;;;;;;24.42;4.80;;;;;;;;;;5021156;28;20123;-74
2023/01/13 07:48:48;;;;;;;27.20;6.03;;;;;;;;;;5029226;28;20046;-74
2023/01/13 07:51:14;;;;;;;20.38;5.03;;;;;;;;;;5022101;28;20099;-74
2023/01/13 07:53:40;;;;;;;18.58;4.80;;;;;;;;;;5020647;28;20497;-74
2023/01/13 07:56:07;;;;;;;24.75;5.72;;;;;;;;;;5028615;28;20045;-74
2023/01/13 07:58:33;;;;;;;20.85;5.15;;;;;;;;;;5029460;28;20037;-74
2023/01/13 08:00:59;;;;;;;19.10;4.68;;;;;;;;;;5024408;28;20075;-74
2023/01/13 08:03:26;;;;;;;16.33;4.07;;;;;;;;;;5022088;28;20038;-74
2023/01/13 08:05:52;;;;;;;23.75;5.80;;;;;;;;;;5018345;28;20049;-74
2023/01/13 08:08:18;;;;;;;17.27;5.28;;;;;;;;;;5020163;28;20056;-74
2023/01/13 08:10:44;;;;;;;20.63;4.57;;;;;;;;;;5017887;28;20544;-74
2023/01/13 08:13:21;;;;;;;20.67;5.53;;;;;;;;;;5012649;28;20496;-75
2023/01/13 08:15:48;;;;;;;23.73;5.55;;;;;;;;;;5021632;28;20092;-74
2023/01/13 08:18:14;;;;;;;25.10;6.43;;;;;;;;;;5011427;28;20056;-74
2023/01/13 08:20:40;;;;;;;19.17;5.45;;;;;;;;;;5050710;28;20054;-74
2023/01/13 08:23:06;;;;;;;17.45;4.18;;;;;;;;;;5020881;28;20037;-74
2023/01/13 08:25:32;;;;;;;30.00;6.40;;;;;;;;;;5023356;28;20073;-74
2023/01/13 08:27:59;;;;;;;27.83;7.00;;;;;;;;;;5020167;28;20050;-74
2023/01/13 08:30:26;;;;;;;21.63;5.20;;;;;;;;;;5025381;28;20052;-74
2023/01/13 08:32:52;;;;;;;25.55;7.32;;;;;;;;;;5028966;28;20076;-73
2023/01/13 08:35:18;;;;;;;29.85;6.28;;;;;;;;;;5031059;28;20064;-74
2023/01/13 08:37:45;;;;;;;30.33;6.10;;;;;;;;;;5026319;28;20038;-74
2023/01/13 08:40:13;;;;;;;35.67;6.45;;;;;;;;;;5031007;28;20505;-74
2023/01/13 08:42:39;;;;;;;33.88;7.15;;;;;;;;;;5025712;28;20050;-74
2023/01/13 08:45:05;;;;;;;24.25;5.90;;;;;;;;;;5027696;28;20045;-75
2023/01/13 08:47:31;;;;;;;26.50;5.63;;;;;;;;;;5030010;28;20093;-74
2023/01/13 08:49:57;;;;;;;27.92;6.03;;;;;;;;;;5030267;28;20402;-75
2023/01/13 08:52:24;;;;;;;24.75;6.10;;;;;;;;;;5026629;28;20046;-75
2023/01/13 08:54:50;;;;;;;29.00;6.05;;;;;;;;;;5025468;28;20050;-75
2023/01/13 08:57:18;;;;;;;19.02;5.25;;;;;;;;;;5030502;28;20363;-75
2023/01/13 08:59:45;;;;;;;25.88;6.22;;;;;;;;;;5022291;28;20045;-75
2023/01/13 09:02:18;;;;;;;29.92;8.13;;;;;;;;;;5031078;28;20658;-75
2023/01/13 09:04:45;;;;;;;19.20;5.03;;;;;;;;;;5034352;28;20503;-75
2023/01/13 09:07:11;;;;;;;22.13;4.88;;;;;;;;;;5032073;28;20056;-75
2023/01/13 09:09:37;;;;;;;20.20;4.80;;;;;;;;;;5027540;28;20068;-75
2023/01/13 09:14:49;;;;;;;31.38;7.03;;;;;;;;;;5029387;28;20057;-75
2023/01/13 09:17:15;;;;;;;34.05;6.18;;;;;;;;;;5024154;28;20049;-75
2023/01/13 09:19:41;;;;;;;25.20;5.55;;;;;;;;;;5027618;28;20050;-75
2023/01/13 09:22:09;;;;;;;24.40;5.35;;;;;;;;;;5026580;28;20443;-75
2023/01/13 09:24:35;;;;;;;21.52;5.75;;;;;;;;;;5024743;28;20056;-75
2023/01/13 09:27:01;;;;;;;28.10;6.03;;;;;;;;;;5015168;28;20045;-75
2023/01/13 09:29:27;;;;;;;26.25;5.72;;;;;;;;;;5033737;28;20045;-75
2023/01/13 09:31:53;;;;;;;15.52;4.30;;;;;;;;;;5062126;28;20103;-75
2023/01/13 09:37:05;;;;;;;19.42;5.35;;;;;;;;;;5016010;28;20137;-75
2023/01/13 09:39:32;;;;;;;25.55;4.88;;;;;;;;;;5033262;28;20124;-75
2023/01/13 09:44:46;;;;;;;15.70;4.53;;;;;;;;;;5022258;28;20049;-74
2023/01/13 09:47:21;;;;;;;16.42;4.30;;;;;;;;;;5029269;28;20108;-74
2023/01/13 09:49:47;;;;;;;22.60;5.45;;;;;;;;;;5031865;28;20056;-74
2023/01/13 09:52:18;;;;;;;20.27;4.38;;;;;;;;;;5033391;28;20103;-74
2023/01/13 09:55:04;;;;;;;20.52;5.28;;;;;;;;;;5030180;28;20049;-74
2023/01/13 09:57:33;;;;;;;19.77;5.10;;;;;;;;;;5015409;28;20060;-74
2023/01/13 10:00:00;;;;;;;22.00;5.32;;;;;;;;;;5032199;28;20049;-74
2023/01/13 10:02:33;;;;;;;15.27;4.32;;;;;;;;;;5029602;28;20123;-75
2023/01/13 10:05:05;;;;;;;16.80;4.93;;;;;;;;;;5033179;28;20045;-75
2023/01/13 10:07:33;;;;;;;18.00;5.15;;;;;;;;;;5029949;28;20129;-75
2023/01/13 10:10:00;;;;;;;18.00;4.60;;;;;;;;;;5031999;28;20095;-74
2023/01/13 10:15:19;;;;;;;18.42;5.55;;;;;;;;;;5031586;28;20085;-74
2023/01/13 10:17:49;;;;;;;22.13;5.22;;;;;;;;;;5028052;28;20131;-74
2023/01/13 10:20:15;;;;;;;17.88;4.70;;;;;;;;;;5031975;28;20064;-75
2023/01/13 10:22:47;;;;;;;19.70;4.65;;;;;;;;;;5021587;28;20046;-75
2023/01/13 10:25:19;;;;;;;16.30;4.63;;;;;;;;;;5033448;28;20045;-74
2023/01/13 10:27:48;;;;;;;17.10;4.95;;;;;;;;;;5028063;28;20413;-74
2023/01/13 10:30:18;;;;;;;22.10;4.68;;;;;;;;;;5028861;28;20060;-74
2023/01/13 10:32:55;;;;;;;14.60;4.30;;;;;;;;;;5011344;28;20060;-74
2023/01/13 10:35:42;;;;;;;15.18;4.18;;;;;;;;;;5030883;28;20193;-74
2023/01/13 10:38:15;;;;;;;18.35;4.88;;;;;;;;;;5030338;28;20045;-74
2023/01/13 10:40:49;;;;;;;18.23;5.05;;;;;;;;;;5028452;28;20401;-75
2023/01/13 10:43:15;;;;;;;;;;;;;;;;;;5027110;28;20057;-74
2023/01/13 10:45:41;;;;;;;19.35;5.13;;;;;;;;;;5026070;28;19925;-74
2023/01/13 10:48:13;;;;;;;17.65;4.75;;;;;;;;;;5016878;28;20081;-74
2023/01/13 10:50:40;;;;;;;19.58;4.88;;;;;;;;;;5019444;28;20128;-74
2023/01/13 10:53:25;;;;;;;16.02;4.40;;;;;;;;;;5012883;28;20045;-74
2023/01/13 10:55:58;;;;;;;21.75;5.15;;;;;;;;;;5013279;28;20430;-74
2023/01/13 10:58:24;;;;;;;;;;;;;;;;;;5027249;28;20058;-75
2023/01/13 11:00:58;;;;;;;20.50;5.90;;;;;;;;;;5031654;28;20071;-74
2023/01/13 11:03:24;;;;;;;23.88;5.47;;;;;;;;;;5030477;28;20150;-74
2023/01/13 11:05:58;;;;;;;14.27;4.00;;;;;;;;;;5030276;28;20045;-74
2023/01/13 11:08:25;;;;;;;22.60;4.90;;;;;;;;;;5014081;28;20116;-74
2023/01/13 11:10:56;;;;;;;20.80;4.63;;;;;;;;;;5030802;28;20063;-74
2023/01/13 11:13:33;;;;;;;19.98;4.68;;;;;;;;;;5027414;28;20053;-74
2023/01/13 11:15:59;;;;;;;21.58;4.20;;;;;;;;;;5032183;28;20128;-74
2023/01/13 11:19:01;;;;;;;20.35;4.55;;;;;;;;;;5027247;28;20160;-75
2023/01/13 11:21:40;;;;;;;23.65;4.78;;;;;;;;;;5021082;28;20063;-74
2023/01/13 11:24:19;;;;;;;17.55;4.80;;;;;;;;;;5016198;28;20041;-74
2023/01/13 11:26:51;;;;;;;19.70;4.45;;;;;;;;;;5028983;28;20049;-74
2023/01/13 11:29:24;;;;;;;15.07;3.80;;;;;;;;;;5043731;28;20046;-74
2023/01/13 11:31:53;;;;;;;18.23;4.55;;;;;;;;;;5013208;28;20577;-74
2023/01/13 11:34:35;;;;;;;10.82;3.25;;;;;;;;;;5026728;28;20045;-75
2023/01/13 11:37:03;;;;;;;17.55;4.20;;;;;;;;;;5016236;28;20049;-74
2023/01/13 11:39:37;;;;;;;16.58;3.85;;;;;;;;;;5019860;28;20037;-75
2023/01/13 11:42:22;;;;;;;15.45;4.32;;;;;;;;;;5030449;28;20050;-74
2023/01/13 11:44:58;;;;;;;13.05;3.72;;;;;;;;;;5030128;28;20183;-74
2023/01/13 11:47:25;;;;;;;14.80;4.05;;;;;;;;;;5029108;28;20132;-74
2023/01/13 11:49:51;;;;;;;15.18;4.35;;;;;;;;;;5026959;28;20187;-74
2023/01/13 11:52:32;;;;;;;18.42;4.72;;;;;;;;;;5030908;28;20046;-75
2023/01/13 11:55:09;;;;;;;16.23;3.80;;;;;;;;;;5027301;28;20060;-74
2023/01/13 11:57:54;;;;;;;15.55;4.38;;;;;;;;;;5019933;28;20503;-74
2023/01/13 12:00:27;;;;;;;11.80;3.90;;;;;;;;;;5024351;28;20508;-72
2023/01/13 12:03:11;;;;;;;15.13;3.53;;;;;;;;;;5020142;28;20049;-73
2023/01/13 12:05:42;;;;;;;17.13;3.30;;;;;;;;;;5018608;28;20145;-73
2023/01/13 12:08:21;;;;;;;14.30;3.70;;;;;;;;;;5008088;28;20813;-74
2023/01/13 12:10:58;;;;;;;15.68;4.60;;;;;;;;;;5013524;28;20053;-73
2023/01/13 12:13:24;;;;;;;18.45;3.88;;;;;;;;;;5012267;28;20481;-74
2023/01/13 12:16:06;;;;;;;13.13;3.70;;;;;;;;;;5016147;28;20149;-73
2023/01/13 12:18:38;;;;;;;12.55;4.18;;;;;;;;;;5026498;28;20111;-74
2023/01/13 12:21:22;;;;;;;19.02;4.20;;;;;;;;;;5029727;28;20108;-74
2023/01/13 12:23:48;;;;;;;16.35;4.53;;;;;;;;;;5026108;28;20053;-74
2023/01/13 12:26:16;;;;;;;13.18;3.83;;;;;;;;;;5014689;28;20053;-73
2023/01/13 12:28:53;;;;;;;11.73;4.40;;;;;;;;;;5029438;28;20056;-74
2023/01/13 12:31:19;;;;;;;14.85;4.05;;;;;;;;;;5029875;28;20490;-74
2023/01/13 12:33:54;;;;;;;14.40;3.78;;;;;;;;;;5027361;28;20085;-73
2023/01/13 12:36:34;;;;;;;16.23;4.50;;;;;;;;;;5030703;28;20444;-74
2023/01/13 12:39:09;;;;;;;16.73;3.90;;;;;;;;;;5030477;28;20053;-74
2023/01/13 12:41:35;;;;;;;17.35;4.43;;;;;;;;;;5027261;28;20179;-74
2023/01/13 12:44:19;;;;;;;11.52;3.90;;;;;;;;;;5028509;28;20037;-75
2023/01/13 12:46:57;;;;;;;19.30;5.05;;;;;;;;;;5015611;28;20088;-74
2023/01/13 12:49:34;;;;;;;18.95;4.32;;;;;;;;;;5022875;28;20084;-74
2023/01/13 12:52:12;;;;;;;19.75;3.92;;;;;;;;;;5030056;28;20087;-78
2023/01/13 12:54:42;;;;;;;17.65;4.22;;;;;;;;;;5027216;28;20057;-79
2023/01/13 12:57:21;;;;;;;15.30;3.70;;;;;;;;;;5029231;28;20367;-79
2023/01/13 13:00:07;;;;;;;13.02;4.45;;;;;;;;;;5024012;28;20132;-78
2023/01/13 13:02:37;;;;;;;20.35;4.05;;;;;;;;;;5030864;28;20042;-79
2023/01/13 13:05:23;;;;;;;16.02;5.40;;;;;;;;;;5024918;28;20045;-80
2023/01/13 13:08:00;;;;;;;11.55;3.72;;;;;;;;;;5011514;28;20054;-80
2023/01/13 13:10:31;;;;;;;18.50;4.40;;;;;;;;;;5028728;28;20128;-80
2023/01/13 13:13:17;;;;;;;14.90;4.22;;;;;;;;;;5030373;28;20037;-79
2023/01/13 13:15:43;;;;;;;20.75;4.22;;;;;;;;;;5060286;28;20115;-80
2023/01/13 13:18:28;;;;;;;14.30;4.25;;;;;;;;;;5027843;28;20045;-79
2023/01/13 13:20:57;;;;;;;21.85;6.10;;;;;;;;;;5025460;28;20089;-80
2023/01/13 13:23:50;;;;;;;15.27;4.25;;;;;;;;;;5011761;28;20133;-80
2023/01/13 13:26:19;;;;;;;11.52;3.53;;;;;;;;;;5028750;28;20045;-80
2023/01/13 13:29:04;;;;;;;17.98;4.60;;;;;;;;;;5014347;28;20037;-80
2023/01/13 13:31:30;;;;;;;14.43;3.95;;;;;;;;;;5009360;28;20503;-80
2023/01/13 13:33:59;;;;;;;16.20;4.55;;;;;;;;;;5013242;28;20504;-79
2023/01/13 13:36:48;;;;;;;14.88;4.07;;;;;;;;;;5027782;28;20533;-80
2023/01/13 13:48:24;;;;;;;19.42;4.65;;;;;;;;;;5030920;28;20037;-80
2023/01/13 13:50:55;;;;;;;13.32;3.80;;;;;;;;;;5009919;28;20058;-80
2023/01/13 13:53:23;;;;;;;18.42;5.03;;;;;;;;;;5013035;28;20058;-79
2023/01/13 13:55:53;;;;;;;16.17;5.00;;;;;;;;;;5024497;28;20048;-80
2023/01/13 13:58:19;;;;;;;15.02;5.18;;;;;;;;;;5033565;28;20413;-80
2023/01/13 14:00:47;;;;;;;20.92;4.78;;;;;;;;;;5022673;28;20505;-79
2023/01/13 14:03:23;;;;;;;13.20;4.55;;;;;;;;;;5029625;28;20053;-80
2023/01/13 14:06:01;;;;;;;10.07;3.85;;;;;;;;;;5027815;28;20527;-80
2023/01/13 14:08:28;;;;;;;16.85;4.05;;;;;;;;;;5031207;28;20052;-79
2023/01/13 14:10:54;;;;;;;8.48;3.67;;;;;;;;;;5031935;28;20505;-80
2023/01/13 14:13:25;;;;;;;18.63;4.68;;;;;;;;;;5032263;28;20394;-79
2023/01/13 14:15:58;;;;;;;14.93;4.55;;;;;;;;;;5025826;28;20056;-80
2023/01/13 14:18:25;;;;;;;;;;;;;;;;;;5031005;28;20053;-79
2023/01/13 14:20:57;;;;;;;10.95;3.40;;;;;;;;;;5029495;28;20377;-79
2023/01/13 14:23:25;;;;;;;13.57;4.07;;;;;;;;;;5030605;28;20489;-79
2023/01/13 14:25:52;;;;;;;19.50;4.72;;;;;;;;;;5032176;28;20049;-79
2023/01/13 14:28:18;;;;;;;17.17;4.35;;;;;;;;;;5013538;28;20037;-79
2023/01/13 14:30:44;;;;;;;22.92;4.63;;;;;;;;;;5010210;28;20094;-80
2023/01/13 14:33:16;;;;;;;17.63;4.07;;;;;;;;;;5012442;28;20042;-79
2023/01/13 14:36:01;;;;;;;15.70;3.70;;;;;;;;;;5022983;28;20106;-80
2023/01/13 14:38:27;;;;;;;21.85;4.50;;;;;;;;;;5031504;28;20378;-80
2023/01/13 14:40:53;;;;;;;13.35;3.58;;;;;;;;;;5031258;28;20098;-79
2023/01/13 14:43:22;;;;;;;19.88;4.78;;;;;;;;;;5027586;28;20069;-79
2023/01/13 14:45:56;;;;;;;15.48;4.00;;;;;;;;;;5020267;28;20532;-79
2023/01/13 14:48:24;;;;;;;19.42;4.50;;;;;;;;;;5015580;28;20050;-79
2023/01/13 14:50:50;;;;;;;11.20;3.50;;;;;;;;;;5019984;28;20112;-79
2023/01/13 14:53:34;;;;;;;19.40;4.68;;;;;;;;;;5015180;28;20402;-79
2023/01/13 14:56:20;;;;;;;13.68;4.20;;;;;;;;;;5020904;28;20045;-79
2023/01/13 14:58:49;;;;;;;14.95;3.35;;;;;;;;;;5022607;28;20046;-79
2023/01/13 15:01:26;;;;;;;19.92;4.60;;;;;;;;;;5027342;28;20088;-80
2023/01/13 15:03:52;;;;;;;20.85;4.38;;;;;;;;;;5023661;28;20491;-80
2023/01/13 15:06:21;;;;;;;14.45;4.10;;;;;;;;;;5013949;28;20100;-80
2023/01/13 15:08:47;;;;;;;23.17;5.68;;;;;;;;;;5012694;28;20144;-79
2023/01/13 15:11:24;;;;;;;13.60;4.55;;;;;;;;;;5058458;28;20215;-79
2023/01/13 15:14:00;;;;;;;15.25;4.88;;;;;;;;;;5027471;28;20077;-79
2023/01/13 15:16:26;;;;;;;12.43;3.72;;;;;;;;;;5019965;28;20445;-79
2023/01/13 15:18:53;;;;;;;17.15;3.97;;;;;;;;;;5011634;28;20564;-79
2023/01/13 15:21:19;;;;;;;15.90;4.60;;;;;;;;;;5022323;28;20052;-80
2023/01/13 15:23:46;;;;;;;19.52;4.10;;;;;;;;;;5031699;28;20069;-79
2023/01/13 15:26:20;;;;;;;23.02;4.60;;;;;;;;;;5011367;28;20068;-79
2023/01/13 15:28:46;;;;;;;22.95;4.78;;;;;;;;;;5013118;28;20038;-79
2023/01/13 15:31:12;;;;;;;12.48;4.07;;;;;;;;;;5011544;28;20045;-79
2023/01/13 15:33:38;;;;;;;19.67;4.47;;;;;;;;;;5021372;28;20046;-80
2023/01/13 15:36:06;;;;;;;16.45;4.20;;;;;;;;;;5019122;28;20398;-82
2023/01/13 15:38:32;;;;;;;18.88;4.85;;;;;;;;;;5013821;28;20176;-80